Time;durP1;ratioP1;P1;durP2;ratioP2;P2;SDS_P1;SDS_P2;PMS_P1;PMS_P2;Temp;Humidity;BMP_temperature;BMP_pressure;BME280_temperature;BME280_humidity;BME280_pressure;Samples;Min_cycle;Max_cycle;Signal;HPM_P1;HPM_P2
2023/05/31 00:02:04;;;;;;;2.53;1.85;;;17.30;99.90;;;;;;5094526;28;20028;-50
2023/05/31 00:04:30;;;;;;;3.58;2.03;;;17.40;99.90;;;;;;5092623;28;20035;-49
2023/05/31 00:06:56;;;;;;;4.72;2.25;;;17.30;99.90;;;;;;5075767;28;20036;-50
2023/05/31 00:09:21;;;;;;;3.45;2.00;;;17.30;99.90;;;;;;5075554;28;20043;-51
2023/05/31 00:11:47;;;;;;;3.75;2.10;;;17.30;99.90;;;;;;5094070;28;20031;-52
2023/05/31 00:14:13;;;;;;;4.28;2.30;;;17.30;99.90;;;;;;5094031;28;20043;-46
2023/05/31 00:16:38;;;;;;;3.50;2.58;;;17.30;99.90;;;;;;5094535;28;20152;-47
2023/05/31 00:19:04;;;;;;;3.67;2.22;;;17.30;99.90;;;;;;5094166;28;20028;-48
2023/05/31 00:21:30;;;;;;;2.30;1.80;;;17.30;99.90;;;;;;5094079;28;20020;-48
2023/05/31 00:23:56;;;;;;;3.88;2.17;;;17.20;99.90;;;;;;5094343;28;20024;-49
2023/05/31 00:26:22;;;;;;;4.13;2.53;;;17.20;99.90;;;;;;5094053;28;20115;-52
2023/05/31 00:28:48;;;;;;;3.15;2.20;;;17.20;99.90;;;;;;5094078;28;20063;-50
2023/05/31 00:31:14;;;;;;;3.25;2.40;;;17.20;99.90;;;;;;5093890;28;20052;-50
2023/05/31 00:33:39;;;;;;;3.53;2.10;;;17.20;99.90;;;;;;5093650;28;20031;-49
2023/05/31 00:36:05;;;;;;;3.20;2.10;;;17.30;99.90;;;;;;5093635;28;20024;-51
2023/05/31 00:38:31;;;;;;;3.70;2.28;;;17.30;99.90;;;;;;5074761;28;20085;-51
2023/05/31 00:40:57;;;;;;;4.35;2.20;;;17.30;99.90;;;;;;5091663;28;20039;-48
2023/05/31 00:43:23;;;;;;;2.97;2.00;;;17.20;99.90;;;;;;5074838;28;20032;-47
2023/05/31 00:45:48;;;;;;;3.47;2.47;;;17.30;99.90;;;;;;5091853;28;20035;-48
2023/05/31 00:48:14;;;;;;;3.08;2.00;;;17.30;99.90;;;;;;5074136;28;20032;-50
2023/05/31 00:50:40;;;;;;;2.35;1.67;;;17.30;99.90;;;;;;5091364;28;20047;-47
2023/05/31 00:53:07;;;;;;;3.67;2.25;;;17.30;99.90;;;;;;5093183;28;20024;-49
2023/05/31 00:55:33;;;;;;;3.95;2.42;;;17.30;99.90;;;;;;5093149;28;20059;-49
2023/05/31 00:57:59;;;;;;;2.97;1.92;;;17.30;99.90;;;;;;5093504;28;20433;-48
2023/05/31 01:00:24;;;;;;;3.13;2.10;;;17.30;99.90;;;;;;5074179;28;20078;-47
2023/05/31 01:02:52;;;;;;;2.28;1.80;;;17.30;99.90;;;;;;5093576;28;20107;-50
2023/05/31 01:05:17;;;;;;;3.50;2.20;;;17.20;99.90;;;;;;5093321;28;20058;-51
2023/05/31 01:07:45;;;;;;;3.15;1.92;;;17.20;99.90;;;;;;5074446;28;20368;-49
2023/05/31 01:10:13;;;;;;;2.60;2.03;;;17.30;99.90;;;;;;5091911;28;20024;-48
2023/05/31 01:13:05;;;;;;;3.63;2.40;;;17.30;99.90;;;;;;5093337;28;20428;-49
2023/05/31 01:15:32;;;;;;;;;;;17.40;99.90;;;;;;5093776;28;20459;-51
2023/05/31 01:18:12;;;;;;;4.00;1.98;;;17.40;99.90;;;;;;5074480;28;19911;-48
2023/05/31 01:20:41;;;;;;;3.28;2.10;;;17.50;99.90;;;;;;5092915;28;20115;-49
2023/05/31 01:23:41;;;;;;;4.40;2.65;;;17.40;99.90;;;;;;5093319;28;20157;-46
2023/05/31 01:26:36;;;;;;;3.47;2.20;;;17.40;99.90;;;;;;5093205;28;20035;-49
2023/05/31 01:29:06;;;;;;;5.45;2.58;;;17.40;99.90;;;;;;5093096;28;20070;-49
2023/05/31 01:31:35;;;;;;;3.95;2.10;;;17.50;99.90;;;;;;5093397;28;20051;-50
2023/05/31 01:34:01;;;;;;;3.88;2.38;;;17.50;99.90;;;;;;5093055;28;20032;-49
2023/05/31 01:36:27;;;;;;;8.82;2.50;;;17.50;99.90;;;;;;5092891;28;20028;-51
2023/05/31 01:38:53;;;;;;;3.13;2.00;;;17.60;99.90;;;;;;5074258;28;20039;-48
2023/05/31 01:41:20;;;;;;;4.22;2.15;;;17.50;99.90;;;;;;5040850;28;20090;-48
2023/05/31 01:43:46;;;;;;;3.85;2.60;;;17.60;99.90;;;;;;5093197;28;20089;-49
2023/05/31 01:46:16;;;;;;;2.70;1.95;;;17.60;99.90;;;;;;5092981;28;20032;-51
2023/05/31 01:48:42;;;;;;;3.40;2.15;;;17.60;99.90;;;;;;5093188;28;20115;-47
2023/05/31 01:51:11;;;;;;;3.65;2.42;;;17.70;99.90;;;;;;5074145;28;20058;-49
2023/05/31 01:53:37;;;;;;;3.78;2.42;;;17.60;99.90;;;;;;5092827;28;20032;-47
2023/05/31 01:56:04;;;;;;;3.30;2.25;;;17.60;99.90;;;;;;5093126;28;20498;-50
2023/05/31 01:58:38;;;;;;;4.63;2.70;;;17.70;99.90;;;;;;5056806;28;20489;-49
2023/05/31 02:01:04;;;;;;;5.28;2.85;;;17.70;99.90;;;;;;5092988;28;20119;-50
2023/05/31 02:03:30;;;;;;;3.90;2.28;;;17.70;99.90;;;;;;5092751;28;20692;-49
2023/05/31 02:05:55;;;;;;;3.65;2.30;;;17.60;99.90;;;;;;5093885;28;20039;-51
2023/05/31 02:08:23;;;;;;;4.22;2.08;;;17.60;99.90;;;;;;5094848;28;20028;-47
2023/05/31 02:10:49;;;;;;;2.88;1.95;;;17.60;99.90;;;;;;5096341;28;20028;-51
2023/05/31 02:13:14;;;;;;;3.53;2.33;;;17.50;99.90;;;;;;5096104;28;20127;-50
2023/05/31 02:15:43;;;;;;;3.13;2.00;;;17.50;99.90;;;;;;5060982;28;20044;-46
2023/05/31 02:18:09;;;;;;;4.45;2.10;;;17.50;99.90;;;;;;5096608;28;20119;-49
2023/05/31 02:20:34;;;;;;;2.47;1.92;;;17.60;99.90;;;;;;5096075;28;20115;-47
2023/05/31 02:23:00;;;;;;;3.25;1.90;;;17.60;99.90;;;;;;5077244;28;20093;-47
2023/05/31 02:25:26;;;;;;;2.97;2.00;;;17.50;99.90;;;;;;5096353;28;20480;-49
2023/05/31 02:27:52;;;;;;;2.97;2.17;;;17.50;99.90;;;;;;5096425;28;20020;-51
2023/05/31 02:30:18;;;;;;;3.13;1.92;;;17.40;99.90;;;;;;5096014;28;20135;-49
2023/05/31 02:32:43;;;;;;;4.10;2.20;;;17.50;99.90;;;;;;5096279;28;20024;-48
2023/05/31 02:35:10;;;;;;;3.10;2.40;;;17.50;99.90;;;;;;5096417;28;20070;-49
2023/05/31 02:37:38;;;;;;;6.55;2.10;;;17.50;99.90;;;;;;5096016;28;20449;-46
2023/05/31 02:40:08;;;;;;;3.83;2.13;;;17.60;99.90;;;;;;5096075;28;20035;-48
2023/05/31 02:42:36;;;;;;;3.28;1.70;;;17.50;99.90;;;;;;5096065;28;20487;-47
2023/05/31 02:45:02;;;;;;;3.90;2.30;;;17.60;99.90;;;;;;5096135;28;20032;-50
2023/05/31 02:47:28;;;;;;;3.42;2.20;;;17.60;99.90;;;;;;5092475;28;20060;-48
2023/05/31 02:49:54;;;;;;;3.63;2.17;;;17.60;99.90;;;;;;5075709;28;20028;-49
2023/05/31 02:52:20;;;;;;;4.88;2.58;;;17.60;99.90;;;;;;5075568;28;20066;-48
2023/05/31 02:54:46;;;;;;;2.85;1.75;;;17.60;99.90;;;;;;5075445;28;20036;-50
2023/05/31 02:57:12;;;;;;;3.97;2.30;;;17.60;99.90;;;;;;5006942;28;20089;-47
2023/05/31 02:59:38;;;;;;;3.95;2.40;;;17.70;99.90;;;;;;5075569;28;20082;-50
2023/05/31 03:02:04;;;;;;;2.88;2.03;;;17.60;99.90;;;;;;5023688;28;20040;-51
2023/05/31 03:04:31;;;;;;;2.65;1.88;;;17.60;99.90;;;;;;5040033;28;20044;-49
2023/05/31 03:06:57;;;;;;;2.35;1.75;;;17.60;99.90;;;;;;5075181;28;20024;-47
2023/05/31 03:09:23;;;;;;;2.97;1.98;;;17.60;99.90;;;;;;5056541;28;20036;-49
2023/05/31 03:11:48;;;;;;;3.38;1.98;;;17.60;99.90;;;;;;5073257;28;20033;-50
2023/05/31 03:14:14;;;;;;;3.00;2.17;;;17.60;99.90;;;;;;5023351;28;20686;-49
2023/05/31 03:16:40;;;;;;;3.55;2.22;;;17.60;99.90;;;;;;5075187;28;20399;-47
2023/05/31 03:19:06;;;;;;;3.08;2.00;;;17.50;99.90;;;;;;5075096;28;20170;-48
2023/05/31 03:21:31;;;;;;;3.03;2.00;;;17.50;99.90;;;;;;5074979;28;20029;-50
2023/05/31 03:23:57;;;;;;;2.95;2.00;;;17.30;99.90;;;;;;5073030;28;20045;-51
2023/05/31 03:26:23;;;;;;;3.47;2.30;;;17.30;99.90;;;;;;5073715;28;20418;-48
2023/05/31 03:28:48;;;;;;;3.33;2.20;;;17.30;99.90;;;;;;5074465;28;20068;-49
2023/05/31 03:31:15;;;;;;;4.25;2.33;;;17.30;99.90;;;;;;5074764;28;20035;-50
2023/05/31 03:33:41;;;;;;;2.83;2.00;;;17.40;99.90;;;;;;5056349;28;20048;-51
2023/05/31 03:36:07;;;;;;;3.10;1.90;;;17.40;99.90;;;;;;5072727;28;20256;-49
2023/05/31 03:38:32;;;;;;;3.60;2.10;;;17.40;99.90;;;;;;5056199;28;20063;-51
2023/05/31 03:40:58;;;;;;;2.85;2.00;;;17.40;99.90;;;;;;5074583;28;20086;-51
2023/05/31 03:43:24;;;;;;;3.40;2.20;;;17.40;99.90;;;;;;5056068;28;20040;-48
2023/05/31 03:45:50;;;;;;;3.20;2.00;;;17.40;99.90;;;;;;5074705;28;20028;-49
2023/05/31 03:48:16;;;;;;;2.58;2.22;;;17.40;99.90;;;;;;5055795;28;20059;-48
2023/05/31 03:50:44;;;;;;;4.45;2.28;;;17.40;99.90;;;;;;5052150;28;20029;-47
2023/05/31 03:53:10;;;;;;;3.72;2.20;;;17.40;99.90;;;;;;5052028;28;20094;-47
2023/05/31 03:55:36;;;;;;;2.72;1.70;;;17.40;99.90;;;;;;5052158;28;20112;-46
2023/05/31 03:58:02;;;;;;;2.53;1.73;;;17.40;99.90;;;;;;5052050;28;20040;-50
2023/05/31 04:00:28;;;;;;;3.78;1.95;;;17.40;99.90;;;;;;5030886;28;20045;-50
2023/05/31 04:02:54;;;;;;;3.88;2.15;;;17.40;99.90;;;;;;5031779;28;20043;-47
2023/05/31 04:05:20;;;;;;;3.25;2.00;;;17.40;99.90;;;;;;5034356;28;20037;-49
2023/05/31 04:07:46;;;;;;;3.60;2.08;;;17.40;99.90;;;;;;4982878;28;20140;-47
2023/05/31 04:10:11;;;;;;;4.35;2.90;;;17.30;99.90;;;;;;4981957;28;20044;-48
2023/05/31 04:12:37;;;;;;;5.53;3.08;;;17.30;99.90;;;;;;5014518;28;20049;-51
2023/05/31 04:15:03;;;;;;;3.78;2.70;;;17.30;99.90;;;;;;5031550;28;20060;-49
2023/05/31 04:17:29;;;;;;;4.20;2.65;;;17.40;99.90;;;;;;4998840;28;20034;-47
2023/05/31 04:19:55;;;;;;;5.47;2.70;;;17.30;99.90;;;;;;5015167;28;20554;-48
2023/05/31 04:22:22;;;;;;;4.00;2.53;;;17.30;99.90;;;;;;5046141;28;20455;-47
2023/05/31 04:24:48;;;;;;;3.60;2.42;;;17.40;99.90;;;;;;5035656;28;20032;-46
2023/05/31 04:27:18;;;;;;;4.35;2.38;;;17.40;99.90;;;;;;5054699;28;20543;-50
2023/05/31 04:29:50;;;;;;;3.45;2.33;;;17.50;99.90;;;;;;5054794;28;20059;-52
2023/05/31 04:32:15;;;;;;;;;;;17.50;99.90;;;;;;5071363;28;20102;-48
2023/05/31 04:34:41;;;;;;;3.28;2.13;;;17.50;99.90;;;;;;5071328;28;19904;-49
2023/05/31 04:37:08;;;;;;;3.05;2.33;;;17.60;99.90;;;;;;5075362;28;20057;-46
2023/05/31 04:39:34;;;;;;;3.92;2.28;;;17.60;99.90;;;;;;5093649;28;20124;-51
2023/05/31 04:42:00;;;;;;;3.42;2.35;;;17.70;99.90;;;;;;5093154;28;20450;-49
2023/05/31 04:44:26;;;;;;;3.50;2.47;;;17.60;99.90;;;;;;5093517;28;20024;-47
2023/05/31 04:46:52;;;;;;;3.72;2.38;;;17.60;99.90;;;;;;5085674;28;20028;-50
2023/05/31 04:49:18;;;;;;;4.05;2.70;;;17.60;99.90;;;;;;5083780;28;20099;-50
2023/05/31 04:51:44;;;;;;;4.97;3.08;;;17.60;99.90;;;;;;5072591;28;20467;-51
2023/05/31 04:54:10;;;;;;;3.72;2.22;;;17.60;99.90;;;;;;5074901;28;20024;-49
2023/05/31 04:56:36;;;;;;;5.18;3.78;;;17.70;99.90;;;;;;5076998;28;20372;-49
2023/05/31 04:59:02;;;;;;;3.50;2.13;;;17.80;99.90;;;;;;5067701;28;20039;-46
2023/05/31 05:01:28;;;;;;;4.93;2.60;;;17.80;99.90;;;;;;5057015;28;20032;-46
2023/05/31 05:03:54;;;;;;;3.78;2.25;;;17.80;99.90;;;;;;5072917;28;20025;-48
2023/05/31 05:06:20;;;;;;;3.55;2.40;;;17.80;99.90;;;;;;5044877;28;20082;-47
2023/05/31 05:08:46;;;;;;;4.22;2.35;;;17.80;99.90;;;;;;5050128;28;20041;-49
2023/05/31 05:11:12;;;;;;;3.53;2.15;;;17.90;99.90;;;;;;5054537;28;20075;-45
2023/05/31 05:13:38;;;;;;;3.63;2.40;;;17.90;99.90;;;;;;5041518;28;20225;-49
2023/05/31 05:16:04;;;;;;;3.90;2.28;;;17.90;99.90;;;;;;5041252;28;20420;-51
2023/05/31 05:18:31;;;;;;;4.47;2.70;;;18.00;99.90;;;;;;5024892;28;20036;-46
2023/05/31 05:20:57;;;;;;;7.10;2.28;;;18.00;99.90;;;;;;5046288;28;20060;-49
2023/05/31 05:23:24;;;;;;;4.25;2.20;;;18.00;99.90;;;;;;5041374;28;20025;-49
2023/05/31 05:25:50;;;;;;;3.60;2.63;;;18.10;99.90;;;;;;5044214;28;20041;-47
2023/05/31 05:28:16;;;;;;;4.50;2.42;;;18.20;99.90;;;;;;5039056;28;20030;-47
2023/05/31 05:30:41;;;;;;;3.95;2.60;;;18.20;99.90;;;;;;5024417;28;20531;-50
2023/05/31 05:33:07;;;;;;;2.70;2.30;;;18.30;99.90;;;;;;5040171;28;20060;-50
2023/05/31 05:35:33;;;;;;;3.58;2.10;;;18.40;99.90;;;;;;5030741;28;20034;-46
2023/05/31 05:37:59;;;;;;;3.72;2.20;;;18.40;99.90;;;;;;5034711;28;20037;-50
2023/05/31 05:40:26;;;;;;;6.10;2.20;;;18.60;99.90;;;;;;5043627;28;20045;-51
2023/05/31 05:42:53;;;;;;;2.38;1.90;;;18.60;99.90;;;;;;5056804;28;20051;-51
2023/05/31 05:45:21;;;;;;;3.83;2.17;;;18.40;99.90;;;;;;5055845;28;20360;-47
2023/05/31 05:47:48;;;;;;;5.00;1.95;;;18.50;99.90;;;;;;5056739;28;20029;-51
2023/05/31 05:50:14;;;;;;;3.10;2.38;;;18.60;99.90;;;;;;5041329;28;20136;-49
2023/05/31 05:52:40;;;;;;;2.92;2.13;;;18.60;99.90;;;;;;5046398;28;20068;-46
2023/05/31 05:55:07;;;;;;;3.50;2.20;;;18.60;99.90;;;;;;5056551;28;20053;-48
2023/05/31 05:57:32;;;;;;;2.65;1.77;;;18.70;99.90;;;;;;5056820;28;20029;-48
2023/05/31 05:59:58;;;;;;;2.65;1.88;;;18.60;99.90;;;;;;5051889;28;20099;-52
2023/05/31 06:02:24;;;;;;;1.27;1.17;;;18.80;99.90;;;;;;5053171;28;20420;-49
2023/05/31 06:04:51;;;;;;;3.45;1.98;;;18.80;99.90;;;;;;5066806;28;20021;-50
2023/05/31 06:07:17;;;;;;;4.55;1.90;;;18.90;99.90;;;;;;5053072;28;20033;-51
2023/05/31 06:09:43;;;;;;;3.00;1.73;;;19.30;99.90;;;;;;5045519;28;20461;-46
2023/05/31 06:12:09;;;;;;;3.20;1.83;;;;;;;;;;5046983;28;20048;-50
2023/05/31 06:14:35;;;;;;;3.10;2.10;;;19.50;99.90;;;;;;5047413;28;20465;-47
2023/05/31 06:17:01;;;;;;;3.35;2.00;;;19.60;99.90;;;;;;5046225;28;20021;-48
2023/05/31 06:30:41;;;;;;;3.92;2.50;;;19.20;99.90;;;;;;5150251;27;20107;-49
2023/05/31 06:33:07;;;;;;;3.72;2.40;;;19.30;99.90;;;;;;5150676;27;20045;-48
2023/05/31 06:35:34;;;;;;;3.38;2.45;;;19.20;99.90;;;;;;5150789;27;20011;-48
2023/05/31 06:38:00;;;;;;;3.38;2.22;;;19.00;99.90;;;;;;5140616;27;20041;-50
2023/05/31 06:40:25;;;;;;;3.55;2.33;;;19.00;99.90;;;;;;5095842;27;20031;-54
2023/05/31 06:42:51;;;;;;;3.10;2.22;;;18.90;99.90;;;;;;5150303;27;20034;-50
2023/05/31 06:45:17;;;;;;;4.40;2.30;;;19.00;99.90;;;;;;5150864;27;20505;-47
2023/05/31 06:47:42;;;;;;;3.70;2.40;;;19.10;99.90;;;;;;5150625;27;20031;-46
2023/05/31 06:50:10;;;;;;;4.18;2.50;;;19.20;99.90;;;;;;5149852;27;20030;-49
2023/05/31 06:52:36;;;;;;;3.92;2.70;;;19.20;99.90;;;;;;5113794;27;20058;-49
2023/05/31 06:55:01;;;;;;;3.33;2.53;;;19.20;99.90;;;;;;5149890;27;20055;-48
2023/05/31 06:57:27;;;;;;;4.65;2.53;;;18.90;99.90;;;;;;5149869;27;20027;-49
2023/05/31 06:59:54;;;;;;;3.33;2.35;;;19.00;99.90;;;;;;5149768;27;20126;-47
2023/05/31 07:02:20;;;;;;;3.63;2.60;;;19.10;99.90;;;;;;5150228;27;20034;-50
2023/05/31 07:04:45;;;;;;;2.78;2.03;;;19.20;99.90;;;;;;5149878;27;20019;-51
2023/05/31 07:07:11;;;;;;;4.00;2.13;;;19.10;99.90;;;;;;5149412;27;20027;-49
2023/05/31 07:09:37;;;;;;;4.32;2.40;;;19.10;99.90;;;;;;5149878;27;20020;-49
2023/05/31 07:12:03;;;;;;;3.33;2.22;;;19.20;99.90;;;;;;5113170;27;20034;-48
2023/05/31 07:14:29;;;;;;;4.28;2.55;;;19.30;99.90;;;;;;5104493;27;20117;-50
2023/05/31 07:16:55;;;;;;;3.63;2.38;;;19.20;99.90;;;;;;5149731;27;20023;-50
2023/05/31 07:19:21;;;;;;;4.22;2.10;;;19.20;99.90;;;;;;5149578;27;20347;-49
2023/05/31 07:21:47;;;;;;;3.92;2.60;;;19.10;99.90;;;;;;5149811;27;20769;-49
2023/05/31 07:24:12;;;;;;;3.45;2.53;;;19.20;99.90;;;;;;5149764;27;20107;-49
2023/05/31 07:26:38;;;;;;;3.75;2.33;;;19.30;99.90;;;;;;5150327;27;20020;-50
2023/05/31 07:29:04;;;;;;;4.72;2.80;;;19.20;99.90;;;;;;5149558;27;20046;-48
2023/05/31 07:31:29;;;;;;;3.78;2.65;;;19.10;99.90;;;;;;5136842;27;20023;-49
2023/05/31 07:33:55;;;;;;;3.50;2.60;;;19.20;99.90;;;;;;5099866;27;20059;-50
2023/05/31 07:36:24;;;;;;;3.92;2.80;;;19.30;99.90;;;;;;5082741;27;20039;-49
2023/05/31 07:38:52;;;;;;;4.47;2.88;;;19.40;99.90;;;;;;5135963;27;20050;-49
2023/05/31 07:41:18;;;;;;;3.92;2.65;;;19.30;99.90;;;;;;5135845;27;20035;-50
2023/05/31 07:43:45;;;;;;;3.35;2.45;;;19.40;99.90;;;;;;5136040;27;20023;-50
2023/05/31 07:46:11;;;;;;;5.13;2.67;;;19.30;99.90;;;;;;5135745;27;20040;-49
2023/05/31 07:48:37;;;;;;;6.35;3.00;;;19.50;99.90;;;;;;5135692;27;20102;-48
2023/05/31 07:51:02;;;;;;;4.80;2.63;;;19.70;99.90;;;;;;5136019;27;20027;-48
2023/05/31 07:53:28;;;;;;;3.90;2.33;;;19.80;99.90;;;;;;5116361;27;20478;-49
2023/05/31 07:55:54;;;;;;;3.00;2.22;;;19.90;99.90;;;;;;5135690;27;20031;-48
2023/05/31 07:58:20;;;;;;;4.40;2.70;;;19.90;99.90;;;;;;5082735;27;20110;-48
2023/05/31 08:00:46;;;;;;;4.63;2.80;;;19.90;99.90;;;;;;5106654;27;20390;-49
2023/05/31 08:03:12;;;;;;;2.80;2.33;;;19.70;99.90;;;;;;5081107;27;20055;-50
2023/05/31 08:05:38;;;;;;;3.78;2.65;;;19.80;99.90;;;;;;5081682;27;20059;-47
2023/05/31 08:08:05;;;;;;;3.80;2.70;;;19.70;99.90;;;;;;5134689;27;20474;-48
2023/05/31 08:10:32;;;;;;;4.38;3.10;;;19.70;99.90;;;;;;5134626;27;20031;-49
2023/05/31 08:12:57;;;;;;;4.93;3.05;;;19.70;99.90;;;;;;5134550;27;20030;-48
2023/05/31 08:15:23;;;;;;;4.20;2.60;;;19.90;99.90;;;;;;5134134;27;20020;-50
2023/05/31 08:17:50;;;;;;;3.28;2.40;;;19.90;99.90;;;;;;5081357;27;20038;-52
2023/05/31 08:20:16;;;;;;;6.45;2.67;;;20.00;99.90;;;;;;5134274;27;20046;-50
2023/05/31 08:22:44;;;;;;;3.40;2.63;;;;;;;;;;5134512;27;20011;-51
2023/05/31 08:25:13;;;;;;;3.85;2.45;;;20.30;99.90;;;;;;5131590;27;20038;-50
2023/05/31 08:27:40;;;;;;;3.97;2.60;;;;;;;;;;5098658;27;20042;-54
2023/05/31 08:30:09;;;;;;;3.30;2.50;;;;;;;;;;5134178;27;20043;-51
2023/05/31 08:32:35;;;;;;;3.70;2.92;;;;;;;;;;5133724;27;20038;-50
2023/05/31 08:35:02;;;;;;;3.60;2.85;;;;;;;;;;5080347;27;20039;-51
2023/05/31 08:37:28;;;;;;;5.15;3.38;;;;;;;;;;5085806;27;20525;-48
2023/05/31 08:39:54;;;;;;;5.05;2.72;;;;;;;;;;5134097;27;20035;-50
2023/05/31 08:42:25;;;;;;;4.50;2.60;;;;;;;;;;5133238;27;20377;-48
2023/05/31 08:44:52;;;;;;;4.50;2.80;;;;;;;;;;5133894;27;20027;-50
2023/05/31 08:47:37;;;;;;;3.53;2.53;;;;;;;;;;5134346;27;20088;-51
2023/05/31 08:50:04;;;;;;;4.82;2.67;;;;;;;;;;5133938;27;20462;-52
2023/05/31 08:52:32;;;;;;;4.55;2.72;;;;;;;;;;5134021;27;20019;-51
2023/05/31 08:54:59;;;;;;;3.33;2.28;;;;;;;;;;5133854;27;20023;-53
2023/05/31 08:57:26;;;;;;;4.05;2.80;;;;;;;;;;5086384;27;20032;-49
2023/05/31 08:59:52;;;;;;;5.65;2.53;;;;;;;;;;5134044;27;20470;-50
2023/05/31 09:02:18;;;;;;;3.08;2.30;;;;;;;;;;5133596;27;20024;-51
2023/05/31 09:04:45;;;;;;;4.40;2.47;;;;;;;;;;5080943;27;20027;-50
2023/05/31 09:07:11;;;;;;;5.22;2.85;;;;;;;;;;5134359;27;20032;-53
2023/05/31 09:09:37;;;;;;;3.78;2.80;;;;;;;;;;5134016;27;20034;-51
2023/05/31 09:12:03;;;;;;;3.30;2.60;;;;;;;;;;5081415;27;20167;-50
2023/05/31 09:14:30;;;;;;;4.10;2.47;;;21.20;99.90;;;;;;5131664;27;20112;-49
2023/05/31 09:16:57;;;;;;;4.25;2.45;;;;;;;;;;5127660;27;20026;-48
2023/05/31 09:19:23;;;;;;;3.05;2.50;;;21.70;99.90;;;;;;5132438;27;20042;-49
2023/05/31 09:21:49;;;;;;;5.22;2.72;;;;;;;;;;5132548;27;20677;-50
2023/05/31 09:24:15;;;;;;;3.42;2.75;;;22.10;99.90;;;;;;5088468;27;20114;-51
2023/05/31 09:26:49;;;;;;;4.00;2.70;;;22.00;99.90;;;;;;5133111;27;20038;-53
2023/05/31 09:29:17;;;;;;;5.07;3.08;;;21.90;99.90;;;;;;5130894;27;20082;-52
2023/05/31 09:31:46;;;;;;;8.38;2.78;;;21.60;99.90;;;;;;5133885;27;20065;-48
2023/05/31 09:34:31;;;;;;;4.75;2.88;;;21.70;99.90;;;;;;5096088;27;20071;-51
2023/05/31 09:37:00;;;;;;;5.18;2.60;;;21.80;99.90;;;;;;5119672;27;20027;-53
2023/05/31 09:39:26;;;;;;;5.72;3.55;;;22.10;99.90;;;;;;5133384;27;20031;-53
2023/05/31 09:41:52;;;;;;;3.63;2.63;;;;;;;;;;5133880;27;20025;-47
2023/05/31 09:44:19;;;;;;;3.85;2.58;;;;;;;;;;5080620;27;20070;-55
2023/05/31 09:46:48;;;;;;;3.58;2.65;;;22.50;99.90;;;;;;5133562;27;20439;-51
2023/05/31 09:49:14;;;;;;;4.82;2.50;;;22.30;99.90;;;;;;5133341;27;20027;-50
2023/05/31 09:51:40;;;;;;;4.50;2.75;;;22.50;99.90;;;;;;5132414;27;20033;-53
2023/05/31 09:54:17;;;;;;;6.35;3.75;;;22.60;99.90;;;;;;5132844;27;20038;-53
2023/05/31 09:56:43;;;;;;;4.00;3.10;;;;;;;;;;5132915;27;20121;-54
2023/05/31 09:59:10;;;;;;;3.78;2.60;;;23.50;99.90;;;;;;5132692;27;20038;-56
2023/05/31 10:01:37;;;;;;;4.88;2.55;;;23.20;99.90;;;;;;5132418;27;20080;-48
2023/05/31 10:04:04;;;;;;;5.65;2.78;;;22.90;99.90;;;;;;5096745;27;20038;-55
2023/05/31 10:06:36;;;;;;;4.47;2.70;;;22.90;99.90;;;;;;5133688;27;20071;-51
2023/05/31 10:09:03;;;;;;;3.33;2.42;;;22.70;99.90;;;;;;5133217;27;20498;-53
2023/05/31 10:11:34;;;;;;;4.50;3.13;;;22.60;99.90;;;;;;5133104;27;20456;-54
2023/05/31 10:14:06;;;;;;;3.33;2.72;;;22.60;99.90;;;;;;5133062;27;20027;-53
2023/05/31 10:16:54;;;;;;;4.93;3.20;;;22.70;99.90;;;;;;5133040;27;20118;-53
2023/05/31 10:19:24;;;;;;;4.25;2.85;;;;;;;;;;5133141;27;20027;-51
2023/05/31 10:21:51;;;;;;;5.10;2.22;;;23.60;99.90;;;;;;5132974;27;20019;-55
2023/05/31 10:24:27;;;;;;;3.15;2.20;;;23.20;99.90;;;;;;5133026;28;20054;-50
2023/05/31 10:27:12;;;;;;;3.78;2.22;;;;;;;;;;5132814;27;20022;-52
2023/05/31 10:29:51;;;;;;;3.72;2.22;;;24.00;99.90;;;;;;5132780;27;20100;-52
2023/05/31 10:32:21;;;;;;;2.50;2.03;;;23.80;99.90;;;;;;5132184;27;20118;-52
2023/05/31 10:34:48;;;;;;;3.10;2.17;;;23.50;99.90;;;;;;5131821;27;20462;-50
2023/05/31 10:37:14;;;;;;;6.13;2.95;;;23.40;99.90;;;;;;5132786;27;20076;-49
2023/05/31 10:39:51;;;;;;;3.40;2.30;;;23.20;99.90;;;;;;5132502;27;20457;-48
2023/05/31 10:42:27;;;;;;;5.20;2.65;;;23.30;99.90;;;;;;5133049;27;20088;-49
2023/05/31 10:45:08;;;;;;;3.65;2.33;;;23.40;99.90;;;;;;5132727;28;20035;-48
2023/05/31 10:47:44;;;;;;;2.92;2.03;;;23.40;99.90;;;;;;5133206;28;20023;-49
2023/05/31 10:50:18;;;;;;;3.30;2.30;;;23.60;99.90;;;;;;5133105;27;20080;-49
2023/05/31 10:52:47;;;;;;;3.13;2.00;;;23.40;99.90;;;;;;5132644;28;20115;-48
2023/05/31 10:55:21;;;;;;;2.92;1.92;;;23.20;99.90;;;;;;5133249;28;20480;-48
2023/05/31 10:58:04;;;;;;;4.82;2.45;;;22.90;99.90;;;;;;5132847;28;20023;-50
2023/05/31 11:00:30;;;;;;;4.07;2.40;;;23.00;99.90;;;;;;5132842;28;20031;-49
2023/05/31 11:02:58;;;;;;;3.08;2.35;;;23.40;99.90;;;;;;5079694;28;20035;-51
2023/05/31 11:05:26;;;;;;;2.92;2.30;;;;;;;;;;5134222;27;20066;-49
2023/05/31 11:07:53;;;;;;;4.40;2.83;;;;;;;;;;5136878;27;20366;-49
2023/05/31 11:10:30;;;;;;;3.47;2.47;;;;;;;;;;5136537;27;20474;-50
2023/05/31 11:12:57;;;;;;;3.08;2.50;;;;;;;;;;5136410;27;20031;-48
2023/05/31 11:15:38;;;;;;;4.35;3.28;;;;;;;;;;5136736;27;20067;-50
2023/05/31 11:18:07;;;;;;;5.57;3.17;;;;;;;;;;5136604;27;20129;-49
2023/05/31 11:20:34;;;;;;;3.80;2.65;;;24.90;99.90;;;;;;5136350;27;20023;-48
2023/05/31 11:23:18;;;;;;;3.35;2.55;;;25.10;99.90;;;;;;5136198;27;20106;-48
2023/05/31 11:25:44;;;;;;;4.60;2.88;;;25.00;99.90;;;;;;5099789;27;20031;-51
2023/05/31 11:28:10;;;;;;;5.07;2.80;;;24.80;99.90;;;;;;5099699;27;20043;-49
2023/05/31 11:30:40;;;;;;;3.90;2.35;;;24.70;99.90;;;;;;5136333;27;20607;-48
2023/05/31 11:33:26;;;;;;;3.67;2.72;;;24.20;99.90;;;;;;5083451;27;20039;-48
2023/05/31 11:35:51;;;;;;;4.18;3.08;;;24.10;99.90;;;;;;5100104;27;20042;-51
2023/05/31 11:38:17;;;;;;;4.03;2.80;;;;;;;;;;5082796;27;20031;-50
2023/05/31 11:40:44;;;;;;;5.00;2.95;;;25.10;99.90;;;;;;5049388;27;20038;-49
2023/05/31 11:43:11;;;;;;;4.03;2.78;;;25.00;99.90;;;;;;5082942;27;20035;-50
2023/05/31 11:45:43;;;;;;;3.25;2.70;;;25.00;99.90;;;;;;5083649;27;20050;-49
2023/05/31 11:48:24;;;;;;;3.80;3.20;;;24.60;99.90;;;;;;5136085;27;20026;-49
2023/05/31 11:50:50;;;;;;;5.50;3.25;;;24.50;99.90;;;;;;5135951;27;20474;-49
2023/05/31 11:53:16;;;;;;;4.93;3.50;;;24.60;99.90;;;;;;5135653;27;20030;-49
2023/05/31 11:55:48;;;;;;;3.70;2.83;;;24.90;99.90;;;;;;5082768;27;20043;-50
2023/05/31 11:58:15;;;;;;;4.95;3.42;;;;;;;;;;5135681;27;20031;-51
2023/05/31 12:00:47;;;;;;;5.30;2.80;;;25.20;99.90;;;;;;5135607;27;20504;-49
2023/05/31 12:03:17;;;;;;;5.75;3.15;;;25.00;99.90;;;;;;5067199;28;20621;-50
2023/05/31 12:05:58;;;;;;;5.13;3.20;;;24.80;99.90;;;;;;5125183;27;20035;-51
2023/05/31 12:08:26;;;;;;;5.05;3.55;;;24.60;99.90;;;;;;5114861;28;20085;-48
2023/05/31 12:10:51;;;;;;;3.55;2.75;;;24.60;99.90;;;;;;5117300;27;20406;-51
2023/05/31 12:13:17;;;;;;;5.75;3.58;;;24.40;99.90;;;;;;5142472;27;20031;-50
2023/05/31 12:15:53;;;;;;;5.78;3.85;;;24.30;99.90;;;;;;5128057;27;20023;-50
2023/05/31 12:18:19;;;;;;;5.13;3.13;;;24.00;99.90;;;;;;5128010;27;20031;-49
2023/05/31 12:20:45;;;;;;;3.35;2.53;;;23.90;99.90;;;;;;5093634;27;20039;-49
2023/05/31 12:23:13;;;;;;;5.43;4.00;;;23.70;99.90;;;;;;5074030;27;20501;-50
2023/05/31 12:25:47;;;;;;;5.30;3.55;;;23.60;99.90;;;;;;5124629;27;20030;-50
2023/05/31 12:28:13;;;;;;;6.30;4.20;;;23.80;99.90;;;;;;5088600;27;20093;-50
2023/05/31 12:30:46;;;;;;;4.18;3.05;;;23.90;99.90;;;;;;5125819;27;20053;-50
2023/05/31 12:33:12;;;;;;;7.00;3.33;;;23.60;99.90;;;;;;5123142;27;20036;-51
2023/05/31 12:35:46;;;;;;;5.53;3.78;;;23.60;99.90;;;;;;5072089;27;20394;-50
2023/05/31 12:38:12;;;;;;;6.68;3.55;;;24.40;99.90;;;;;;5124529;27;20063;-50
2023/05/31 12:40:42;;;;;;;4.50;3.22;;;24.80;99.90;;;;;;5095519;27;20466;-49
2023/05/31 12:43:09;;;;;;;4.45;3.15;;;;;;;;;;5119014;27;20015;-51
2023/05/31 12:45:42;;;;;;;5.35;3.67;;;;;;;;;;5126264;27;20052;-50
2023/05/31 12:48:09;;;;;;;5.75;3.35;;;;;;;;;;5116362;27;20678;-49
2023/05/31 12:50:35;;;;;;;5.78;3.03;;;;;;;;;;5129034;27;20107;-48
2023/05/31 12:53:02;;;;;;;4.88;3.13;;;;;;;;;;5127270;27;20035;-48
2023/05/31 12:55:28;;;;;;;4.80;3.17;;;;;;;;;;5130519;27;20081;-50
2023/05/31 12:57:54;;;;;;;4.88;3.40;;;;;;;;;;5122870;27;20450;-50
2023/05/31 13:00:20;;;;;;;6.00;3.47;;;;;;;;;;5126765;27;20136;-50
2023/05/31 13:02:46;;;;;;;4.72;3.50;;;;;;;;;;5125983;27;20031;-49
2023/05/31 13:05:12;;;;;;;4.78;3.38;;;;;;;;;;5073012;27;20517;-50
2023/05/31 13:07:40;;;;;;;4.53;3.38;;;;;;;;;;5128185;27;20023;-49
2023/05/31 13:10:07;;;;;;;4.35;3.05;;;;;;;;;;5129246;27;20062;-51
2023/05/31 13:12:34;;;;;;;7.63;3.47;;;27.10;99.90;;;;;;5128241;27;20034;-49
2023/05/31 13:15:00;;;;;;;4.97;3.30;;;27.20;99.90;;;;;;5125658;27;20030;-52
2023/05/31 13:17:26;;;;;;;3.58;2.67;;;27.30;99.90;;;;;;5068037;27;20123;-49